Time;durP1;ratioP1;P1;durP2;ratioP2;P2;SDS_P1;SDS_P2;PMS_P1;PMS_P2;Temp;Humidity;BMP_temperature;BMP_pressure;BME280_temperature;BME280_humidity;BME280_pressure;Samples;Min_cycle;Max_cycle;Signal;HPM_P1;HPM_P2
2023/04/19 00:04:48;;;;;;;6.68;4.13;;;8.30;99.90;;;;;;12502189;28;20512;-81
2023/04/19 00:10:50;;;;;;;6.65;4.28;;;8.10;99.90;;;;;;12503691;28;20053;-81
2023/04/19 00:16:52;;;;;;;6.53;3.65;;;7.90;99.90;;;;;;12502429;28;20559;-82
2023/04/19 00:22:54;;;;;;;6.57;4.30;;;8.00;99.90;;;;;;12498847;28;20536;-81
2023/04/19 00:28:56;;;;;;;8.07;4.43;;;8.00;99.90;;;;;;12506840;28;20050;-81
2023/04/19 00:34:58;;;;;;;7.45;4.07;;;8.00;99.90;;;;;;12479285;28;20057;-81
2023/04/19 00:40:59;;;;;;;7.38;4.65;;;7.90;99.90;;;;;;12506211;28;20497;-81
2023/04/19 00:47:01;;;;;;;8.95;4.60;;;8.00;99.90;;;;;;12476861;28;20057;-81
2023/04/19 00:53:03;;;;;;;8.20;4.53;;;8.00;99.90;;;;;;12479884;28;20053;-81
2023/04/19 00:59:05;;;;;;;5.82;4.47;;;7.90;99.90;;;;;;12501371;28;20128;-81
2023/04/19 01:05:08;;;;;;;9.20;4.82;;;8.00;99.90;;;;;;12498258;28;20061;-81
2023/04/19 01:11:10;;;;;;;7.25;4.20;;;8.00;99.90;;;;;;12484572;28;20041;-81
2023/04/19 01:17:14;;;;;;;8.85;4.60;;;7.90;99.90;;;;;;12485429;28;20056;-81
2023/04/19 01:23:16;;;;;;;;;;;7.80;99.90;;;;;;12503806;28;20094;-81
2023/04/19 01:29:20;;;;;;;7.18;4.68;;;7.60;99.90;;;;;;12505626;28;20051;-81
2023/04/19 01:35:22;;;;;;;6.53;4.53;;;7.60;99.90;;;;;;12498633;28;20433;-81
2023/04/19 01:41:26;;;;;;;6.70;4.25;;;7.60;99.90;;;;;;12530335;28;20144;-80
2023/04/19 01:47:28;;;;;;;7.50;3.80;;;7.50;99.90;;;;;;12517350;28;20059;-81
2023/04/19 01:53:30;;;;;;;8.20;3.97;;;7.50;99.90;;;;;;12546617;28;20049;-81
2023/04/19 01:59:31;;;;;;;8.13;3.38;;;7.40;99.90;;;;;;12536002;28;20045;-81
2023/04/19 02:05:33;;;;;;;5.13;2.88;;;7.30;99.90;;;;;;12516720;28;20049;-81
2023/04/19 02:11:35;;;;;;;4.28;2.53;;;7.40;99.90;;;;;;12515661;28;20087;-80
2023/04/19 02:17:37;;;;;;;4.05;2.45;;;7.40;99.90;;;;;;12518827;28;20053;-81
2023/04/19 02:23:39;;;;;;;5.22;2.70;;;7.40;99.90;;;;;;12518718;28;20052;-81
2023/04/19 02:29:41;;;;;;;4.63;2.22;;;7.30;99.90;;;;;;12511593;28;20106;-80
2023/04/19 02:35:43;;;;;;;4.20;2.28;;;7.40;99.90;;;;;;12514511;28;20056;-80
2023/04/19 02:41:45;;;;;;;3.92;2.03;;;7.20;99.90;;;;;;12503804;28;20096;-81
2023/04/19 02:47:46;;;;;;;4.60;2.20;;;6.90;99.90;;;;;;12521268;28;20052;-81
2023/04/19 02:53:48;;;;;;;4.47;2.17;;;6.90;99.90;;;;;;12467818;28;20055;-80
2023/04/19 02:59:50;;;;;;;8.43;2.35;;;6.60;99.90;;;;;;12498541;28;20068;-80
2023/04/19 03:05:52;;;;;;;4.05;2.22;;;6.60;99.90;;;;;;12482807;28;20106;-80
2023/04/19 03:11:54;;;;;;;5.40;2.15;;;6.60;99.90;;;;;;12488766;28;20048;-80
2023/04/19 03:17:56;;;;;;;5.20;2.40;;;6.40;99.90;;;;;;12481447;28;20114;-80
2023/04/19 03:23:57;;;;;;;4.32;2.40;;;6.20;99.90;;;;;;12517472;28;20293;-81
2023/04/19 03:29:59;;;;;;;4.68;2.10;;;5.90;99.90;;;;;;12477362;28;20144;-80
2023/04/19 03:36:02;;;;;;;4.70;2.30;;;5.80;99.90;;;;;;12506622;28;20041;-80
2023/04/19 03:42:04;;;;;;;7.53;2.75;;;5.70;99.90;;;;;;12499809;28;20330;-80
2023/04/19 03:48:06;;;;;;;5.53;2.28;;;5.60;99.90;;;;;;12503086;28;20083;-80
2023/04/19 03:54:08;;;;;;;5.40;2.20;;;5.40;99.90;;;;;;12525144;28;20060;-80
2023/04/19 04:00:10;;;;;;;4.47;2.13;;;5.40;99.90;;;;;;12522224;28;20050;-80
2023/04/19 04:06:12;;;;;;;4.55;2.03;;;5.40;99.90;;;;;;12521709;28;20186;-80
2023/04/19 04:12:14;;;;;;;5.90;2.28;;;5.40;99.90;;;;;;12504811;28;20413;-80
2023/04/19 04:18:16;;;;;;;4.90;2.35;;;5.30;99.90;;;;;;12490666;28;20053;-81
2023/04/19 04:24:19;;;;;;;4.60;2.22;;;5.30;99.90;;;;;;12495178;28;20114;-81
2023/04/19 04:30:21;;;;;;;8.70;2.42;;;5.20;99.90;;;;;;12513379;28;20049;-81
2023/04/19 04:36:22;;;;;;;5.93;2.42;;;5.00;99.90;;;;;;12502367;28;20139;-81
2023/04/19 04:42:25;;;;;;;5.68;2.10;;;5.00;99.90;;;;;;12472777;28;20585;-81
2023/04/19 04:48:27;;;;;;;10.27;2.70;;;5.00;99.90;;;;;;12514523;28;20057;-81
2023/04/19 04:54:28;;;;;;;4.25;2.10;;;4.90;99.90;;;;;;12467680;28;20048;-81
2023/04/19 05:00:31;;;;;;;5.18;2.25;;;4.80;99.90;;;;;;12473897;28;20094;-81
2023/04/19 05:06:33;;;;;;;5.97;2.20;;;4.70;99.90;;;;;;12487211;28;20091;-81
2023/04/19 05:12:36;;;;;;;3.83;1.90;;;4.70;99.90;;;;;;12493476;28;20079;-81
2023/04/19 05:18:38;;;;;;;5.32;2.10;;;4.80;99.90;;;;;;12477523;28;21059;-81
2023/04/19 05:24:40;;;;;;;5.28;2.30;;;4.90;99.90;;;;;;12502078;28;20159;-81
2023/04/19 05:30:43;;;;;;;4.35;2.05;;;4.90;99.90;;;;;;12457282;28;20752;-81
2023/04/19 05:36:45;;;;;;;6.47;2.33;;;5.00;99.90;;;;;;12486455;28;20095;-81
2023/04/19 05:42:46;;;;;;;4.25;2.30;;;5.30;99.90;;;;;;12493159;28;20075;-81
2023/04/19 05:48:48;;;;;;;6.25;2.17;;;5.80;99.90;;;;;;12488937;28;20378;-81
2023/04/19 05:54:50;;;;;;;5.30;2.10;;;6.00;99.90;;;;;;12495919;28;20076;-81
2023/04/19 06:00:52;;;;;;;4.72;1.98;;;5.50;99.90;;;;;;12511648;28;20099;-81
2023/04/19 06:06:54;;;;;;;4.22;2.20;;;5.40;99.90;;;;;;12528448;28;20073;-81
2023/04/19 06:12:55;;;;;;;7.63;2.50;;;5.70;99.90;;;;;;12513186;28;20052;-80
2023/04/19 06:18:57;;;;;;;5.07;2.22;;;5.80;99.90;;;;;;12524741;28;20098;-81
2023/04/19 06:25:00;;;;;;;3.63;1.85;;;5.90;99.90;;;;;;12494959;28;20094;-81
2023/04/19 06:31:02;;;;;;;5.95;2.05;;;5.80;99.90;;;;;;12507448;28;20049;-81
2023/04/19 06:37:03;;;;;;;5.97;2.00;;;5.80;99.90;;;;;;12519844;28;20118;-81
2023/04/19 06:43:05;;;;;;;5.35;2.15;;;5.70;99.90;;;;;;12516514;28;20102;-81
2023/04/19 06:49:07;;;;;;;4.38;2.17;;;5.80;99.90;;;;;;12496740;28;20524;-81
2023/04/19 06:55:09;;;;;;;4.82;1.73;;;5.70;99.90;;;;;;12490201;28;20545;-81
2023/04/19 07:01:11;;;;;;;6.03;1.90;;;5.70;99.90;;;;;;12488773;28;20486;-81
2023/04/19 07:07:13;;;;;;;5.28;2.00;;;5.80;99.90;;;;;;12498991;28;20053;-80
2023/04/19 07:13:15;;;;;;;4.82;1.90;;;6.10;99.90;;;;;;12482512;28;20049;-81
2023/04/19 07:19:19;;;;;;;3.95;2.05;;;6.30;99.90;;;;;;12508334;28;20072;-81
2023/04/19 07:25:21;;;;;;;5.88;2.17;;;6.50;99.90;;;;;;12498005;28;20085;-81
2023/04/19 07:31:24;;;;;;;4.57;1.95;;;6.90;99.90;;;;;;12495873;28;20667;-81
2023/04/19 07:37:27;;;;;;;5.78;1.90;;;6.90;99.90;;;;;;12472961;28;20098;-81
2023/04/19 07:43:29;;;;;;;5.22;1.80;;;7.20;99.90;;;;;;12468290;28;20049;-81
2023/04/19 07:49:33;;;;;;;3.97;1.77;;;7.20;99.90;;;;;;12505747;28;20110;-81
2023/04/19 07:55:35;;;;;;;6.05;2.00;;;7.30;99.90;;;;;;12520243;28;20045;-81
2023/04/19 08:01:36;;;;;;;4.72;2.15;;;7.90;99.90;;;;;;12521146;28;20055;-81
2023/04/19 08:07:39;;;;;;;5.03;1.85;;;8.20;99.90;;;;;;12493375;28;20053;-81
2023/04/19 08:13:41;;;;;;;4.40;1.77;;;8.50;99.90;;;;;;12504523;28;20128;-81
2023/04/19 08:19:56;;;;;;;6.35;1.77;;;8.80;99.90;;;;;;12512375;28;20064;-81
2023/04/19 08:25:58;;;;;;;4.10;2.10;;;9.00;99.90;;;;;;12493693;28;20049;-82
2023/04/19 08:32:00;;;;;;;3.65;1.90;;;9.30;99.90;;;;;;12525945;28;20094;-81
2023/04/19 08:38:03;;;;;;;3.10;1.80;;;9.20;99.90;;;;;;12508503;28;20178;-82
2023/04/19 08:44:06;;;;;;;3.03;1.83;;;9.80;99.90;;;;;;12476816;28;20049;-82
2023/04/19 08:50:09;;;;;;;4.83;1.97;;;10.00;99.90;;;;;;12474128;28;20057;-82
2023/04/19 08:56:31;;;;;;;3.22;1.38;;;10.30;99.90;;;;;;12489278;28;20064;-81
2023/04/19 09:02:50;;;;;;;2.70;1.40;;;10.30;99.90;;;;;;12483183;28;20053;-82
2023/04/19 09:09:16;;;;;;;3.45;1.60;;;10.30;99.90;;;;;;12484837;28;20059;-82
2023/04/19 09:15:35;;;;;;;3.90;1.50;;;10.20;99.90;;;;;;12465556;28;20472;-82
2023/04/19 09:21:37;;;;;;;5.72;1.70;;;10.60;99.90;;;;;;12469149;28;20557;-81
2023/04/19 09:27:39;;;;;;;4.10;1.60;;;10.80;99.90;;;;;;12479917;28;20065;-81
2023/04/19 09:33:43;;;;;;;5.05;1.65;;;10.80;99.90;;;;;;12487227;28;20052;-82
2023/04/19 09:39:45;;;;;;;3.78;1.27;;;11.30;99.90;;;;;;12494272;28;20045;-81
2023/04/19 09:45:47;;;;;;;3.28;1.63;;;11.40;99.90;;;;;;12531681;28;20056;-82
2023/04/19 09:51:50;;;;;;;3.70;1.60;;;11.20;99.90;;;;;;12523793;28;20049;-82
2023/04/19 09:57:52;;;;;;;3.27;1.43;;;12.00;99.90;;;;;;12532204;28;20057;-82
2023/04/19 10:03:55;;;;;;;8.18;2.03;;;11.70;99.90;;;;;;12514234;28;20045;-82
2023/04/19 10:10:17;;;;;;;6.80;1.42;;;12.40;99.90;;;;;;12526846;28;20048;-82
2023/04/19 10:16:22;;;;;;;5.05;1.45;;;12.20;99.90;;;;;;12512395;28;20053;-82
2023/04/19 10:22:24;;;;;;;7.10;1.60;;;12.70;99.90;;;;;;12528224;28;20159;-82
2023/04/19 10:28:28;;;;;;;3.65;1.40;;;12.90;99.90;;;;;;12518003;28;20061;-82
2023/04/19 10:34:38;;;;;;;4.90;1.67;;;13.00;99.90;;;;;;12504908;28;20053;-82
2023/04/19 10:40:59;;;;;;;4.45;1.55;;;12.60;99.90;;;;;;12523023;28;20120;-82
2023/04/19 10:47:04;;;;;;;3.60;1.52;;;12.30;99.90;;;;;;12495877;28;20486;-82
2023/04/19 10:53:43;;;;;;;2.67;1.42;;;13.00;99.90;;;;;;12507440;28;20052;-82
2023/04/19 11:00:20;;;;;;;2.80;1.58;;;12.60;99.90;;;;;;12524499;28;20606;-82
2023/04/19 11:06:25;;;;;;;3.40;1.50;;;12.70;99.90;;;;;;12494961;28;20184;-82
2023/04/19 11:12:27;;;;;;;2.78;1.52;;;12.70;99.90;;;;;;12515030;28;20098;-82
2023/04/19 11:18:29;;;;;;;4.60;1.63;;;12.70;99.90;;;;;;12516481;28;20049;-82
2023/04/19 11:24:34;;;;;;;4.00;1.35;;;13.20;99.90;;;;;;12510864;28;20096;-82
2023/04/19 11:30:36;;;;;;;3.90;1.85;;;13.40;99.90;;;;;;12499875;28;20044;-81
2023/04/19 11:36:51;;;;;;;3.67;1.33;;;13.40;99.90;;;;;;12497160;28;20045;-82
2023/04/19 11:42:55;;;;;;;3.47;1.80;;;13.70;99.90;;;;;;12505396;28;20055;-82
2023/04/19 11:48:57;;;;;;;3.42;1.30;;;14.00;99.90;;;;;;12494678;28;20060;-82
2023/04/19 11:55:17;;;;;;;4.97;1.35;;;15.00;99.90;;;;;;12503623;28;20053;-82
2023/04/19 12:01:20;;;;;;;3.58;1.40;;;14.50;99.90;;;;;;12525645;28;20060;-82
2023/04/19 12:07:22;;;;;;;5.07;1.30;;;14.30;99.90;;;;;;12528919;28;20141;-82
2023/04/19 12:13:25;;;;;;;2.42;1.30;;;13.50;99.90;;;;;;12499041;28;20127;-82
2023/04/19 12:19:26;;;;;;;5.10;1.15;;;14.30;99.90;;;;;;12502000;28;20049;-83
2023/04/19 12:25:33;;;;;;;4.03;1.17;;;14.10;99.90;;;;;;12509663;28;20104;-82
2023/04/19 12:31:35;;;;;;;1.98;1.10;;;14.50;99.90;;;;;;12516630;28;20052;-82
2023/04/19 12:37:36;;;;;;;3.72;1.20;;;14.80;99.90;;;;;;12502889;28;20050;-82
2023/04/19 12:43:38;;;;;;;4.43;1.33;;;14.70;99.90;;;;;;12512895;28;20106;-82
2023/04/19 12:49:40;;;;;;;2.80;1.20;;;14.80;99.90;;;;;;12512628;28;20332;-82
2023/04/19 12:55:46;;;;;;;2.50;1.20;;;14.40;99.90;;;;;;12517479;28;20072;-82
2023/04/19 13:01:48;;;;;;;3.30;1.40;;;14.30;99.90;;;;;;12502962;28;20531;-82
2023/04/19 13:07:50;;;;;;;3.60;1.20;;;14.30;99.90;;;;;;12518191;28;20049;-82
2023/04/19 13:13:52;;;;;;;2.75;1.20;;;14.10;99.90;;;;;;12492640;28;20507;-82
2023/04/19 13:19:55;;;;;;;4.60;1.40;;;14.70;99.90;;;;;;12520074;28;20056;-83
2023/04/19 13:25:57;;;;;;;6.32;1.20;;;14.90;99.90;;;;;;12511027;28;20059;-82
2023/04/19 13:31:59;;;;;;;3.45;1.30;;;14.70;99.90;;;;;;12508317;28;20390;-82
2023/04/19 13:38:01;;;;;;;5.85;1.60;;;14.60;99.90;;;;;;12499745;28;20064;-81
2023/04/19 13:44:02;;;;;;;7.00;1.60;;;14.30;96.50;;;;;;12502789;28;20117;-82
2023/04/19 13:50:05;;;;;;;6.10;1.40;;;14.20;98.50;;;;;;12515722;28;20052;-82
2023/04/19 13:56:08;;;;;;;4.65;1.40;;;14.40;97.80;;;;;;12505076;28;20049;-82
2023/04/19 14:02:10;;;;;;;5.45;1.58;;;13.30;98.60;;;;;;12496858;28;20092;-82
2023/04/19 14:08:12;;;;;;;3.55;1.50;;;14.20;99.30;;;;;;12490073;28;20120;-82
2023/04/19 14:14:14;;;;;;;5.03;1.70;;;13.20;99.90;;;;;;12509834;28;20037;-82
2023/04/19 14:20:16;;;;;;;14.07;2.22;;;13.60;99.90;;;;;;12494336;28;20056;-83
2023/04/19 14:26:18;;;;;;;4.10;1.70;;;14.20;99.90;;;;;;12500422;28;20056;-82
2023/04/19 14:32:20;;;;;;;3.22;1.90;;;12.90;98.00;;;;;;12511501;28;20448;-81
2023/04/19 14:38:27;;;;;;;2.80;1.60;;;12.90;98.70;;;;;;12508747;28;20049;-82
2023/04/19 14:44:29;;;;;;;3.70;1.83;;;14.00;99.90;;;;;;12511033;28;20420;-82
2023/04/19 14:50:31;;;;;;;5.00;1.70;;;13.30;99.90;;;;;;12501384;28;20052;-83
2023/04/19 14:56:33;;;;;;;4.68;2.00;;;12.70;99.20;;;;;;12514873;28;20046;-82
2023/04/19 15:02:36;;;;;;;7.72;2.10;;;12.80;99.90;;;;;;12513382;28;20143;-82
2023/04/19 15:08:39;;;;;;;4.05;2.28;;;12.30;99.90;;;;;;12520892;28;20053;-82
2023/04/19 15:14:41;;;;;;;5.07;2.38;;;12.90;99.90;;;;;;12500614;28;20498;-82
2023/04/19 15:20:43;;;;;;;8.75;2.20;;;12.40;99.90;;;;;;12491519;28;20038;-81
2023/04/19 15:26:44;;;;;;;8.43;2.15;;;12.70;99.90;;;;;;12498413;28;20095;-82
2023/04/19 15:32:46;;;;;;;4.78;2.20;;;13.00;99.90;;;;;;12497042;28;20098;-82
2023/04/19 15:38:48;;;;;;;3.95;2.13;;;13.00;99.90;;;;;;12506399;28;20056;-82
2023/04/19 15:44:50;;;;;;;4.70;2.05;;;12.90;99.90;;;;;;12505484;28;20133;-82
2023/04/19 15:50:51;;;;;;;5.25;2.30;;;13.00;99.90;;;;;;12519031;28;20640;-81
2023/04/19 15:56:54;;;;;;;4.43;1.98;;;12.00;99.90;;;;;;12509847;28;20045;-82
2023/04/19 16:02:56;;;;;;;4.28;2.10;;;11.70;99.90;;;;;;12531358;28;20110;-82
2023/04/19 16:08:58;;;;;;;3.50;1.80;;;12.20;99.90;;;;;;12513379;28;20450;-82
2023/04/19 16:15:00;;;;;;;3.65;1.73;;;12.60;99.90;;;;;;12501301;28;20045;-82
2023/04/19 16:21:02;;;;;;;6.15;2.05;;;12.00;99.90;;;;;;12497670;28;20045;-82
2023/04/19 16:27:04;;;;;;;4.93;2.25;;;12.30;99.90;;;;;;12499750;28;20052;-81
2023/04/19 16:33:06;;;;;;;5.07;2.13;;;12.20;99.90;;;;;;12494412;28;20445;-82
2023/04/19 16:39:08;;;;;;;4.65;1.70;;;12.60;99.90;;;;;;12514239;28;20055;-81
2023/04/19 16:45:10;;;;;;;3.20;1.60;;;12.10;99.90;;;;;;12504797;28;20049;-82
2023/04/19 16:51:11;;;;;;;3.28;1.70;;;11.50;99.90;;;;;;12509025;28;20049;-82
2023/04/19 16:57:13;;;;;;;5.82;1.73;;;11.10;99.90;;;;;;12498615;28;20053;-82
2023/04/19 17:03:15;;;;;;;3.92;2.00;;;11.10;99.90;;;;;;12515375;28;20157;-82
2023/04/19 17:09:17;;;;;;;7.85;2.00;;;11.30;99.90;;;;;;12510308;28;20106;-82
2023/04/19 17:15:20;;;;;;;5.18;1.80;;;11.50;99.90;;;;;;12508790;28;20187;-82
2023/04/19 17:21:21;;;;;;;5.57;2.55;;;11.50;99.90;;;;;;12504533;28;20047;-82
2023/04/19 17:27:24;;;;;;;8.35;2.00;;;11.50;99.90;;;;;;12505958;28;20062;-82
2023/04/19 17:33:25;;;;;;;4.40;1.80;;;11.50;99.90;;;;;;12498756;28;20075;-82
2023/04/19 17:39:27;;;;;;;4.30;1.60;;;11.40;99.90;;;;;;12502737;28;20053;-82
2023/04/19 17:45:29;;;;;;;7.97;1.70;;;11.20;99.90;;;;;;12506443;28;20103;-82
2023/04/19 17:51:31;;;;;;;3.17;1.65;;;11.00;99.90;;;;;;12513128;28;20044;-82
2023/04/19 17:57:33;;;;;;;5.68;2.08;;;10.90;99.90;;;;;;12504735;28;20042;-82
2023/04/19 18:03:35;;;;;;;4.50;1.80;;;10.70;99.90;;;;;;12531443;28;20053;-82
2023/04/19 18:09:38;;;;;;;7.05;1.75;;;10.40;99.90;;;;;;12518088;28;20061;-82
2023/04/19 18:15:39;;;;;;;6.50;1.88;;;10.30;99.90;;;;;;12506189;28;20044;-82
2023/04/19 18:21:41;;;;;;;5.13;1.80;;;10.10;99.90;;;;;;12499163;28;20128;-82
2023/04/19 18:27:43;;;;;;;6.82;2.00;;;10.00;99.90;;;;;;12484745;28;20053;-82
2023/04/19 18:33:45;;;;;;;7.63;2.30;;;9.90;99.90;;;;;;12509865;28;20045;-82
2023/04/19 18:39:47;;;;;;;5.68;2.58;;;10.00;99.90;;;;;;12515894;28;20048;-82
2023/04/19 18:45:53;;;;;;;5.15;2.08;;;10.00;99.90;;;;;;12503113;28;20049;-82
2023/04/19 18:51:55;;;;;;;6.13;2.30;;;10.00;99.90;;;;;;12514101;28;20056;-81
2023/04/19 18:57:57;;;;;;;4.63;2.40;;;10.10;99.90;;;;;;12531129;28;20075;-80
2023/04/19 19:04:02;;;;;;;4.90;2.50;;;10.00;99.90;;;;;;12539494;28;20079;-81
2023/04/19 19:10:08;;;;;;;5.13;2.45;;;9.90;99.90;;;;;;12503750;28;20075;-81
2023/04/19 19:16:22;;;;;;;4.53;2.45;;;9.70;99.90;;;;;;12510567;28;20485;-81
2023/04/19 19:22:24;;;;;;;7.97;2.38;;;9.70;99.90;;;;;;12519168;28;20049;-80
2023/04/19 19:28:29;;;;;;;6.10;2.47;;;9.70;99.90;;;;;;12511777;28;20052;-80
2023/04/19 19:34:31;;;;;;;8.52;2.55;;;9.60;99.90;;;;;;12511639;28;20087;-80
2023/04/19 19:40:48;;;;;;;7.10;1.90;;;9.50;99.90;;;;;;12519318;28;20041;-80
2023/04/19 19:46:52;;;;;;;6.03;2.28;;;9.20;99.90;;;;;;12491491;28;20083;-80
2023/04/19 19:52:55;;;;;;;7.30;2.55;;;9.20;99.90;;;;;;12523116;28;20048;-80
2023/04/19 19:58:56;;;;;;;4.40;2.10;;;9.10;99.90;;;;;;12521075;28;20053;-80
2023/04/19 20:04:58;;;;;;;7.15;2.20;;;9.10;99.90;;;;;;12513562;28;20049;-80
2023/04/19 20:11:00;;;;;;;5.50;2.05;;;9.00;99.90;;;;;;12488965;28;20048;-81
2023/04/19 20:17:02;;;;;;;3.97;2.10;;;8.80;99.90;;;;;;12508809;28;20183;-80
2023/04/19 20:23:04;;;;;;;5.55;2.17;;;8.80;99.90;;;;;;12529609;28;20064;-81
2023/04/19 20:29:06;;;;;;;5.88;2.05;;;8.80;99.90;;;;;;12515723;28;20503;-80
2023/04/19 20:35:10;;;;;;;5.45;1.95;;;8.70;99.90;;;;;;12487900;28;20041;-80
2023/04/19 20:41:13;;;;;;;4.60;2.17;;;8.60;99.90;;;;;;12514305;28;20219;-80
2023/04/19 20:47:17;;;;;;;6.30;2.15;;;8.70;99.90;;;;;;12490180;28;20064;-80
2023/04/19 20:53:18;;;;;;;6.13;2.00;;;8.70;99.90;;;;;;12496207;28;20049;-80
2023/04/19 20:59:20;;;;;;;4.32;2.17;;;8.70;99.90;;;;;;12506562;28;20067;-80
2023/04/19 21:05:22;;;;;;;5.05;2.28;;;8.60;99.90;;;;;;12508073;28;20087;-80
2023/04/19 21:11:24;;;;;;;6.82;2.10;;;8.60;99.90;;;;;;12512707;28;20049;-80
2023/04/19 21:17:26;;;;;;;6.18;2.38;;;8.50;99.90;;;;;;12493784;28;20064;-81
2023/04/19 21:23:28;;;;;;;5.82;2.13;;;8.50;99.90;;;;;;12506918;28;20417;-80
2023/04/19 21:29:30;;;;;;;4.10;1.98;;;8.40;99.90;;;;;;12511656;28;20060;-80
2023/04/19 21:35:33;;;;;;;7.03;2.45;;;8.50;99.90;;;;;;12495006;28;20053;-80
2023/04/19 21:41:36;;;;;;;6.20;2.70;;;8.30;99.90;;;;;;12511890;28;20490;-80
2023/04/19 21:47:38;;;;;;;5.80;2.15;;;8.20;99.90;;;;;;12504136;28;20500;-81
2023/04/19 21:53:40;;;;;;;6.68;2.05;;;8.20;99.90;;;;;;12535691;28;20052;-80
2023/04/19 21:59:42;;;;;;;6.65;2.22;;;8.20;99.90;;;;;;12517566;28;20060;-80
2023/04/19 22:05:45;;;;;;;4.32;2.20;;;8.20;99.90;;;;;;12514014;28;20056;-80
2023/04/19 22:11:49;;;;;;;5.07;2.20;;;8.30;99.90;;;;;;12505716;28;20049;-80
2023/04/19 22:17:51;;;;;;;3.33;1.93;;;8.30;99.90;;;;;;12501519;28;20053;-80
2023/04/19 22:23:52;;;;;;;7.68;2.20;;;8.30;99.90;;;;;;12507450;28;20068;-80
2023/04/19 22:29:54;;;;;;;6.50;1.80;;;8.30;99.90;;;;;;12520366;28;20119;-80
2023/04/19 22:35:56;;;;;;;6.75;1.92;;;8.10;99.90;;;;;;12515875;28;20505;-80
2023/04/19 22:41:58;;;;;;;5.95;2.05;;;8.10;99.90;;;;;;12504728;28;20053;-81
2023/04/19 22:48:00;;;;;;;5.47;2.28;;;8.00;99.90;;;;;;12519887;28;20140;-80
2023/04/19 22:54:03;;;;;;;4.22;1.75;;;8.10;99.90;;;;;;12517812;28;20049;-80
2023/04/19 23:00:05;;;;;;;7.18;1.90;;;8.20;99.90;;;;;;12529415;28;20091;-80
2023/04/19 23:06:08;;;;;;;4.95;1.60;;;8.20;99.90;;;;;;12512982;28;20064;-80
2023/04/19 23:12:09;;;;;;;7.15;1.92;;;8.10;99.90;;;;;;12515006;28;20076;-79
2023/04/19 23:18:11;;;;;;;6.00;2.00;;;8.20;99.90;;;;;;12525184;28;20057;-79
2023/04/19 23:24:13;;;;;;;4.10;2.10;;;8.10;99.90;;;;;;12499836;28;20045;-80
2023/04/19 23:30:16;;;;;;;8.38;2.22;;;7.90;99.90;;;;;;12522257;28;20053;-80
2023/04/19 23:36:18;;;;;;;7.32;2.30;;;8.00;99.90;;;;;;12504832;28;20060;-80
2023/04/19 23:42:20;;;;;;;4.53;2.50;;;8.00;99.90;;;;;;12510831;28;20761;-80
2023/04/19 23:48:22;;;;;;;7.93;2.78;;;8.00;99.90;;;;;;12514361;28;20061;-80
2023/04/19 23:54:26;;;;;;;4.95;2.70;;;7.80;99.90;;;;;;12517730;28;20049;-80
